sensor_id;sensor_type;location;lat;lon;timestamp;pressure;altitude;pressure_sealevel;temperature;humidity
64610;BME280;51019;46.090;6.350;2023-09-07T00:00:15;96800.22;;;19.01;100.00
64610;BME280;51019;46.090;6.350;2023-09-07T00:02:41;96800.28;;;19.08;100.00
64610;BME280;51019;46.090;6.350;2023-09-07T00:05:09;96820.78;;;19.14;100.00
64610;BME280;51019;46.090;6.350;2023-09-07T00:07:37;96803.66;;;19.16;100.00
64610;BME280;51019;46.090;6.350;2023-09-07T00:10:04;96823.44;;;19.14;100.00
64610;BME280;51019;46.090;6.350;2023-09-07T00:12:33;96816.50;;;19.13;100.00
64610;BME280;51019;46.090;6.350;2023-09-07T00:15:01;96828.50;;;19.09;100.00
64610;BME280;51019;46.090;6.350;2023-09-07T00:17:28;96806.00;;;19.05;100.00
64610;BME280;51019;46.090;6.350;2023-09-07T00:19:55;96802.84;;;18.80;100.00
64610;BME280;51019;46.090;6.350;2023-09-07T00:22:23;96814.38;;;18.87;100.00
64610;BME280;51019;46.090;6.350;2023-09-07T00:24:51;96814.78;;;18.69;100.00
64610;BME280;51019;46.090;6.350;2023-09-07T00:27:18;96809.19;;;18.79;100.00
64610;BME280;51019;46.090;6.350;2023-09-07T00:29:46;96803.31;;;18.83;100.00
64610;BME280;51019;46.090;6.350;2023-09-07T00:32:13;96808.56;;;18.98;100.00
64610;BME280;51019;46.090;6.350;2023-09-07T00:34:40;96804.19;;;18.91;100.00
64610;BME280;51019;46.090;6.350;2023-09-07T00:37:07;96808.81;;;18.82;100.00
64610;BME280;51019;46.090;6.350;2023-09-07T00:39:34;96795.34;;;18.83;100.00
64610;BME280;51019;46.090;6.350;2023-09-07T00:42:01;96812.63;;;18.94;100.00
64610;BME280;51019;46.090;6.350;2023-09-07T00:44:28;96796.38;;;18.53;100.00
64610;BME280;51019;46.090;6.350;2023-09-07T00:46:57;96810.41;;;18.47;100.00
64610;BME280;51019;46.090;6.350;2023-09-07T00:49:24;96802.06;;;18.65;100.00
64610;BME280;51019;46.090;6.350;2023-09-07T00:51:52;96812.94;;;18.55;100.00
64610;BME280;51019;46.090;6.350;2023-09-07T00:54:19;96803.91;;;18.49;100.00
64610;BME280;51019;46.090;6.350;2023-09-07T00:56:46;96808.13;;;18.59;100.00
64610;BME280;51019;46.090;6.350;2023-09-07T00:59:14;96809.78;;;18.60;100.00
64610;BME280;51019;46.090;6.350;2023-09-07T01:01:41;96807.00;;;18.53;100.00
64610;BME280;51019;46.090;6.350;2023-09-07T01:04:10;96809.13;;;18.58;100.00
64610;BME280;51019;46.090;6.350;2023-09-07T01:06:39;96799.69;;;18.40;100.00
64610;BME280;51019;46.090;6.350;2023-09-07T01:09:11;96803.84;;;18.28;100.00
64610;BME280;51019;46.090;6.350;2023-09-07T01:11:41;96809.13;;;18.28;100.00
64610;BME280;51019;46.090;6.350;2023-09-07T01:14:08;96761.69;;;18.04;100.00
64610;BME280;51019;46.090;6.350;2023-09-07T01:16:36;96791.56;;;18.27;100.00
64610;BME280;51019;46.090;6.350;2023-09-07T01:19:06;96797.97;;;18.33;100.00
64610;BME280;51019;46.090;6.350;2023-09-07T01:21:36;96801.06;;;18.22;100.00
64610;BME280;51019;46.090;6.350;2023-09-07T01:24:04;96807.75;;;18.47;100.00
64610;BME280;51019;46.090;6.350;2023-09-07T01:26:33;96812.69;;;18.35;100.00
64610;BME280;51019;46.090;6.350;2023-09-07T01:29:00;96811.59;;;18.30;100.00
64610;BME280;51019;46.090;6.350;2023-09-07T01:31:27;96806.38;;;18.22;100.00
64610;BME280;51019;46.090;6.350;2023-09-07T01:33:54;96802.91;;;18.21;100.00
64610;BME280;51019;46.090;6.350;2023-09-07T01:36:21;96765.31;;;18.18;100.00
64610;BME280;51019;46.090;6.350;2023-09-07T01:38:50;96803.72;;;18.22;100.00
64610;BME280;51019;46.090;6.350;2023-09-07T01:41:17;96801.19;;;18.13;100.00
64610;BME280;51019;46.090;6.350;2023-09-07T01:43:44;96805.84;;;18.11;100.00
64610;BME280;51019;46.090;6.350;2023-09-07T01:46:11;96806.75;;;18.04;100.00
64610;BME280;51019;46.090;6.350;2023-09-07T01:48:37;96809.28;;;17.97;100.00
64610;BME280;51019;46.090;6.350;2023-09-07T01:51:04;96808.59;;;18.03;100.00
64610;BME280;51019;46.090;6.350;2023-09-07T01:53:31;96806.00;;;17.95;100.00
64610;BME280;51019;46.090;6.350;2023-09-07T01:55:59;96807.66;;;17.96;100.00
64610;BME280;51019;46.090;6.350;2023-09-07T01:58:26;96809.94;;;17.99;100.00
64610;BME280;51019;46.090;6.350;2023-09-07T02:00:57;96809.13;;;17.99;100.00
64610;BME280;51019;46.090;6.350;2023-09-07T02:03:24;96798.78;;;17.89;100.00
64610;BME280;51019;46.090;6.350;2023-09-07T02:05:52;96812.16;;;18.10;100.00
64610;BME280;51019;46.090;6.350;2023-09-07T02:08:19;96809.22;;;17.91;100.00
64610;BME280;51019;46.090;6.350;2023-09-07T02:10:46;96805.63;;;17.61;100.00
64610;BME280;51019;46.090;6.350;2023-09-07T02:13:14;96788.13;;;17.60;100.00
64610;BME280;51019;46.090;6.350;2023-09-07T02:15:41;96803.88;;;17.76;100.00
64610;BME280;51019;46.090;6.350;2023-09-07T02:18:08;96810.69;;;17.93;100.00
64610;BME280;51019;46.090;6.350;2023-09-07T02:20:35;96803.81;;;17.61;100.00
64610;BME280;51019;46.090;6.350;2023-09-07T02:23:01;96804.97;;;17.67;100.00
64610;BME280;51019;46.090;6.350;2023-09-07T02:25:28;96811.84;;;17.76;100.00
64610;BME280;51019;46.090;6.350;2023-09-07T02:27:56;96808.34;;;17.75;100.00
64610;BME280;51019;46.090;6.350;2023-09-07T02:30:24;96806.91;;;17.88;100.00
64610;BME280;51019;46.090;6.350;2023-09-07T02:32:51;96810.75;;;17.70;100.00
64610;BME280;51019;46.090;6.350;2023-09-07T02:35:18;96809.75;;;17.71;100.00
64610;BME280;51019;46.090;6.350;2023-09-07T02:37:45;96811.56;;;17.71;100.00
64610;BME280;51019;46.090;6.350;2023-09-07T02:40:12;96815.44;;;17.60;100.00
64610;BME280;51019;46.090;6.350;2023-09-07T02:42:41;96814.09;;;17.64;100.00
64610;BME280;51019;46.090;6.350;2023-09-07T02:45:11;96783.31;;;17.40;100.00
64610;BME280;51019;46.090;6.350;2023-09-07T02:47:40;96811.97;;;17.60;100.00
64610;BME280;51019;46.090;6.350;2023-09-07T02:50:08;96813.13;;;17.80;100.00
64610;BME280;51019;46.090;6.350;2023-09-07T02:52:35;96814.47;;;17.76;100.00
64610;BME280;51019;46.090;6.350;2023-09-07T02:55:02;96813.84;;;17.74;100.00
64610;BME280;51019;46.090;6.350;2023-09-07T02:57:29;96808.22;;;17.31;100.00
64610;BME280;51019;46.090;6.350;2023-09-07T02:59:56;96813.16;;;17.34;100.00
64610;BME280;51019;46.090;6.350;2023-09-07T03:02:23;96803.50;;;17.41;100.00
64610;BME280;51019;46.090;6.350;2023-09-07T03:04:54;96779.25;;;17.30;100.00
64610;BME280;51019;46.090;6.350;2023-09-07T03:07:24;96803.66;;;17.40;100.00
64610;BME280;51019;46.090;6.350;2023-09-07T03:09:51;96804.16;;;17.43;100.00
64610;BME280;51019;46.090;6.350;2023-09-07T03:12:18;96802.84;;;17.39;100.00
64610;BME280;51019;46.090;6.350;2023-09-07T03:14:45;96811.34;;;17.12;100.00
64610;BME280;51019;46.090;6.350;2023-09-07T03:17:13;96770.81;;;16.89;100.00
64610;BME280;51019;46.090;6.350;2023-09-07T03:19:41;96812.00;;;17.14;100.00
64610;BME280;51019;46.090;6.350;2023-09-07T03:22:10;96818.16;;;17.29;100.00
64610;BME280;51019;46.090;6.350;2023-09-07T03:24:37;96812.16;;;17.35;100.00
64610;BME280;51019;46.090;6.350;2023-09-07T03:27:04;96818.53;;;17.26;100.00
64610;BME280;51019;46.090;6.350;2023-09-07T03:29:31;96789.41;;;17.26;100.00
64610;BME280;51019;46.090;6.350;2023-09-07T03:32:00;96809.34;;;17.37;100.00
64610;BME280;51019;46.090;6.350;2023-09-07T03:34:27;96807.28;;;17.24;100.00
64610;BME280;51019;46.090;6.350;2023-09-07T03:36:55;96792.41;;;17.23;100.00
64610;BME280;51019;46.090;6.350;2023-09-07T03:39:24;96805.00;;;17.21;100.00
64610;BME280;51019;46.090;6.350;2023-09-07T03:41:51;96810.34;;;17.36;100.00
64610;BME280;51019;46.090;6.350;2023-09-07T03:44:18;96804.66;;;17.24;100.00
64610;BME280;51019;46.090;6.350;2023-09-07T03:46:45;96804.09;;;17.06;100.00
64610;BME280;51019;46.090;6.350;2023-09-07T03:49:11;96801.09;;;17.09;100.00
64610;BME280;51019;46.090;6.350;2023-09-07T03:51:38;96800.41;;;17.15;100.00
64610;BME280;51019;46.090;6.350;2023-09-07T03:54:05;96792.47;;;17.15;100.00
64610;BME280;51019;46.090;6.350;2023-09-07T03:56:33;96804.34;;;17.19;100.00
64610;BME280;51019;46.090;6.350;2023-09-07T03:59:00;96793.47;;;17.14;100.00
64610;BME280;51019;46.090;6.350;2023-09-07T04:01:28;96800.09;;;16.87;100.00
64610;BME280;51019;46.090;6.350;2023-09-07T04:03:54;96800.16;;;17.02;100.00
64610;BME280;51019;46.090;6.350;2023-09-07T04:06:21;96744.75;;;16.78;100.00
64610;BME280;51019;46.090;6.350;2023-09-07T04:08:51;96802.94;;;17.09;100.00
64610;BME280;51019;46.090;6.350;2023-09-07T04:11:17;96799.34;;;17.01;100.00
64610;BME280;51019;46.090;6.350;2023-09-07T04:13:46;96806.97;;;16.96;100.00
64610;BME280;51019;46.090;6.350;2023-09-07T04:16:13;96813.41;;;16.71;100.00
64610;BME280;51019;46.090;6.350;2023-09-07T04:18:42;96814.78;;;16.59;100.00
64610;BME280;51019;46.090;6.350;2023-09-07T04:21:10;96802.75;;;16.48;100.00
64610;BME280;51019;46.090;6.350;2023-09-07T04:23:37;96814.28;;;16.63;100.00
64610;BME280;51019;46.090;6.350;2023-09-07T04:26:06;96772.03;;;16.47;100.00
64610;BME280;51019;46.090;6.350;2023-09-07T04:28:33;96810.28;;;16.59;100.00
64610;BME280;51019;46.090;6.350;2023-09-07T04:31:03;96801.34;;;16.60;100.00
64610;BME280;51019;46.090;6.350;2023-09-07T04:33:30;96812.25;;;16.74;100.00
64610;BME280;51019;46.090;6.350;2023-09-07T04:35:58;96820.19;;;16.74;100.00
64610;BME280;51019;46.090;6.350;2023-09-07T04:38:32;96793.63;;;16.51;100.00
64610;BME280;51019;46.090;6.350;2023-09-07T04:41:05;96820.72;;;16.61;100.00
64610;BME280;51019;46.090;6.350;2023-09-07T04:43:32;96812.16;;;16.51;100.00
64610;BME280;51019;46.090;6.350;2023-09-07T04:45:59;96797.00;;;16.37;100.00
64610;BME280;51019;46.090;6.350;2023-09-07T04:48:27;96822.13;;;16.41;100.00
64610;BME280;51019;46.090;6.350;2023-09-07T04:50:57;96823.09;;;16.48;100.00
64610;BME280;51019;46.090;6.350;2023-09-07T04:53:27;96819.63;;;16.47;100.00
64610;BME280;51019;46.090;6.350;2023-09-07T04:55:53;96822.41;;;16.54;100.00
64610;BME280;51019;46.090;6.350;2023-09-07T04:58:20;96797.53;;;16.32;100.00
64610;BME280;51019;46.090;6.350;2023-09-07T05:00:47;96807.56;;;16.45;100.00
64610;BME280;51019;46.090;6.350;2023-09-07T05:03:14;96827.19;;;16.58;100.00
64610;BME280;51019;46.090;6.350;2023-09-07T05:05:43;96820.41;;;16.64;100.00
64610;BME280;51019;46.090;6.350;2023-09-07T05:08:10;96821.78;;;16.44;100.00
64610;BME280;51019;46.090;6.350;2023-09-07T05:10:38;96820.63;;;16.46;100.00
64610;BME280;51019;46.090;6.350;2023-09-07T05:13:05;96830.84;;;16.57;100.00
64610;BME280;51019;46.090;6.350;2023-09-07T05:15:31;96831.69;;;16.50;100.00
64610;BME280;51019;46.090;6.350;2023-09-07T05:17:58;96813.53;;;16.39;100.00
64610;BME280;51019;46.090;6.350;2023-09-07T05:20:26;96844.03;;;16.65;100.00
64610;BME280;51019;46.090;6.350;2023-09-07T05:22:57;96825.09;;;16.46;100.00
64610;BME280;51019;46.090;6.350;2023-09-07T05:25:26;96844.72;;;16.51;100.00
64610;BME280;51019;46.090;6.350;2023-09-07T05:27:56;96857.63;;;16.54;100.00
64610;BME280;51019;46.090;6.350;2023-09-07T05:30:23;96857.75;;;16.61;100.00
64610;BME280;51019;46.090;6.350;2023-09-07T05:32:51;96861.38;;;16.60;100.00
64610;BME280;51019;46.090;6.350;2023-09-07T05:35:16;96848.88;;;16.54;100.00
64610;BME280;51019;46.090;6.350;2023-09-07T05:37:43;96860.22;;;16.70;100.00
64610;BME280;51019;46.090;6.350;2023-09-07T05:40:15;96856.06;;;16.76;100.00
64610;BME280;51019;46.090;6.350;2023-09-07T05:42:42;96838.06;;;16.72;100.00
64610;BME280;51019;46.090;6.350;2023-09-07T05:45:09;96864.75;;;17.24;100.00
64610;BME280;51019;46.090;6.350;2023-09-07T05:47:36;96841.34;;;17.27;100.00
64610;BME280;51019;46.090;6.350;2023-09-07T05:50:05;96860.03;;;17.57;100.00
64610;BME280;51019;46.090;6.350;2023-09-07T05:52:31;96865.97;;;17.59;100.00
64610;BME280;51019;46.090;6.350;2023-09-07T05:54:58;96869.50;;;17.74;100.00
64610;BME280;51019;46.090;6.350;2023-09-07T05:57:27;96874.25;;;18.01;100.00
64610;BME280;51019;46.090;6.350;2023-09-07T05:59:54;96858.75;;;17.90;100.00
64610;BME280;51019;46.090;6.350;2023-09-07T06:02:21;96871.88;;;18.21;100.00
64610;BME280;51019;46.090;6.350;2023-09-07T06:04:47;96872.91;;;18.49;100.00
64610;BME280;51019;46.090;6.350;2023-09-07T06:07:14;96874.72;;;18.34;100.00
64610;BME280;51019;46.090;6.350;2023-09-07T06:09:41;96875.44;;;18.43;100.00
64610;BME280;51019;46.090;6.350;2023-09-07T06:12:08;96870.44;;;18.48;100.00
64610;BME280;51019;46.090;6.350;2023-09-07T06:14:36;96875.84;;;18.69;100.00
64610;BME280;51019;46.090;6.350;2023-09-07T06:17:03;96870.13;;;18.87;100.00
64610;BME280;51019;46.090;6.350;2023-09-07T06:19:31;96866.75;;;18.93;100.00
64610;BME280;51019;46.090;6.350;2023-09-07T06:21:58;96876.72;;;19.06;100.00
64610;BME280;51019;46.090;6.350;2023-09-07T06:24:25;96878.94;;;19.23;100.00
64610;BME280;51019;46.090;6.350;2023-09-07T06:26:52;96872.91;;;19.51;100.00
64610;BME280;51019;46.090;6.350;2023-09-07T06:29:19;96877.66;;;19.55;100.00
64610;BME280;51019;46.090;6.350;2023-09-07T06:31:47;96875.09;;;19.90;100.00
64610;BME280;51019;46.090;6.350;2023-09-07T06:34:15;96870.97;;;19.87;100.00
64610;BME280;51019;46.090;6.350;2023-09-07T06:36:42;96864.44;;;19.90;100.00
64610;BME280;51019;46.090;6.350;2023-09-07T06:39:09;96851.31;;;19.82;100.00
64610;BME280;51019;46.090;6.350;2023-09-07T06:41:36;96874.06;;;20.40;100.00
64610;BME280;51019;46.090;6.350;2023-09-07T06:44:03;96872.25;;;20.19;100.00
64610;BME280;51019;46.090;6.350;2023-09-07T06:46:31;96873.75;;;20.28;100.00
64610;BME280;51019;46.090;6.350;2023-09-07T06:48:59;96884.81;;;20.32;100.00
64610;BME280;51019;46.090;6.350;2023-09-07T06:51:26;96879.56;;;20.73;100.00
64610;BME280;51019;46.090;6.350;2023-09-07T06:53:53;96865.00;;;20.69;100.00
64610;BME280;51019;46.090;6.350;2023-09-07T06:56:19;96887.56;;;20.73;100.00
64610;BME280;51019;46.090;6.350;2023-09-07T06:58:46;96887.63;;;20.93;100.00
64610;BME280;51019;46.090;6.350;2023-09-07T07:01:13;96863.09;;;21.11;100.00
64610;BME280;51019;46.090;6.350;2023-09-07T07:03:41;96889.50;;;21.60;100.00
64610;BME280;51019;46.090;6.350;2023-09-07T07:06:10;96889.53;;;21.73;100.00
64610;BME280;51019;46.090;6.350;2023-09-07T07:08:37;96873.13;;;21.89;100.00
64610;BME280;51019;46.090;6.350;2023-09-07T07:11:04;96879.94;;;22.12;100.00
64610;BME280;51019;46.090;6.350;2023-09-07T07:13:30;96888.53;;;22.07;100.00
64610;BME280;51019;46.090;6.350;2023-09-07T07:15:57;96884.22;;;21.86;100.00
64610;BME280;51019;46.090;6.350;2023-09-07T07:18:24;96892.03;;;22.01;100.00
64610;BME280;51019;46.090;6.350;2023-09-07T07:20:51;96887.25;;;22.49;100.00
64610;BME280;51019;46.090;6.350;2023-09-07T07:23:19;96882.31;;;22.79;100.00
64610;BME280;51019;46.090;6.350;2023-09-07T07:25:46;96878.78;;;22.85;100.00
64610;BME280;51019;46.090;6.350;2023-09-07T07:28:13;96891.56;;;23.21;100.00
64610;BME280;51019;46.090;6.350;2023-09-07T07:30:40;96882.53;;;23.60;100.00
64610;BME280;51019;46.090;6.350;2023-09-07T07:33:07;96898.47;;;23.42;100.00
64610;BME280;51019;46.090;6.350;2023-09-07T07:35:35;96897.81;;;23.53;100.00
64610;BME280;51019;46.090;6.350;2023-09-07T07:38:02;96897.91;;;23.96;100.00
64610;BME280;51019;46.090;6.350;2023-09-07T07:40:32;96892.84;;;24.13;100.00
64610;BME280;51019;46.090;6.350;2023-09-07T07:42:59;96897.59;;;23.48;100.00
64610;BME280;51019;46.090;6.350;2023-09-07T07:45:28;96892.47;;;23.46;100.00
64610;BME280;51019;46.090;6.350;2023-09-07T07:47:55;96895.69;;;24.18;100.00
64610;BME280;51019;46.090;6.350;2023-09-07T07:50:22;96892.88;;;24.38;100.00
64610;BME280;51019;46.090;6.350;2023-09-07T07:52:49;96888.31;;;23.88;100.00
64610;BME280;51019;46.090;6.350;2023-09-07T07:55:16;96889.31;;;24.44;100.00
64610;BME280;51019;46.090;6.350;2023-09-07T07:57:45;96893.34;;;24.28;100.00
64610;BME280;51019;46.090;6.350;2023-09-07T08:00:14;96892.38;;;24.47;100.00
64610;BME280;51019;46.090;6.350;2023-09-07T08:02:43;96887.97;;;24.35;100.00
64610;BME280;51019;46.090;6.350;2023-09-07T08:05:10;96892.06;;;25.28;100.00
64610;BME280;51019;46.090;6.350;2023-09-07T08:07:37;96892.63;;;25.49;100.00
64610;BME280;51019;46.090;6.350;2023-09-07T08:10:05;96898.13;;;25.54;100.00
64610;BME280;51019;46.090;6.350;2023-09-07T08:12:35;96885.09;;;24.91;100.00
64610;BME280;51019;46.090;6.350;2023-09-07T08:15:04;96878.25;;;24.95;100.00
64610;BME280;51019;46.090;6.350;2023-09-07T08:17:31;96888.81;;;25.26;100.00
64610;BME280;51019;46.090;6.350;2023-09-07T08:19:58;96836.75;;;24.43;100.00
64610;BME280;51019;46.090;6.350;2023-09-07T08:22:25;96886.41;;;25.18;100.00
64610;BME280;51019;46.090;6.350;2023-09-07T08:24:53;96886.06;;;24.96;100.00
64610;BME280;51019;46.090;6.350;2023-09-07T08:27:20;96886.88;;;24.79;100.00
64610;BME280;51019;46.090;6.350;2023-09-07T08:29:47;96876.22;;;25.27;100.00
64610;BME280;51019;46.090;6.350;2023-09-07T08:32:18;96891.91;;;25.42;100.00
64610;BME280;51019;46.090;6.350;2023-09-07T08:34:46;96886.94;;;25.87;100.00
64610;BME280;51019;46.090;6.350;2023-09-07T08:37:13;96889.72;;;26.45;97.58
64610;BME280;51019;46.090;6.350;2023-09-07T08:39:40;96886.34;;;26.61;95.10
64610;BME280;51019;46.090;6.350;2023-09-07T08:42:08;96883.44;;;25.86;100.00
64610;BME280;51019;46.090;6.350;2023-09-07T08:44:37;96870.75;;;26.17;96.04
64610;BME280;51019;46.090;6.350;2023-09-07T08:47:05;96881.16;;;26.83;91.78
64610;BME280;51019;46.090;6.350;2023-09-07T08:49:34;96881.88;;;26.67;89.96
64610;BME280;51019;46.090;6.350;2023-09-07T08:52:03;96885.00;;;26.75;88.09
64610;BME280;51019;46.090;6.350;2023-09-07T08:54:33;96881.97;;;27.35;83.64
64610;BME280;51019;46.090;6.350;2023-09-07T08:57:02;96887.25;;;27.87;81.52
64610;BME280;51019;46.090;6.350;2023-09-07T08:59:30;96882.75;;;27.93;80.66
64610;BME280;51019;46.090;6.350;2023-09-07T09:01:57;96882.94;;;27.29;85.35
64610;BME280;51019;46.090;6.350;2023-09-07T09:04:25;96885.13;;;27.04;87.44
64610;BME280;51019;46.090;6.350;2023-09-07T09:06:54;96879.81;;;27.49;86.27
64610;BME280;51019;46.090;6.350;2023-09-07T09:09:22;96876.75;;;27.29;85.71
64610;BME280;51019;46.090;6.350;2023-09-07T09:11:49;96882.47;;;28.39;79.09
64610;BME280;51019;46.090;6.350;2023-09-07T09:14:17;96876.63;;;27.24;84.45
64610;BME280;51019;46.090;6.350;2023-09-07T09:16:48;96863.94;;;28.09;79.93
64610;BME280;51019;46.090;6.350;2023-09-07T09:19:16;96870.97;;;28.44;76.55
64610;BME280;51019;46.090;6.350;2023-09-07T09:21:44;96867.34;;;29.15;70.89
64610;BME280;51019;46.090;6.350;2023-09-07T09:24:13;96870.09;;;29.20;70.25
64610;BME280;51019;46.090;6.350;2023-09-07T09:26:41;96871.34;;;29.13;71.12
64610;BME280;51019;46.090;6.350;2023-09-07T09:29:09;96863.44;;;28.68;70.46
64610;BME280;51019;46.090;6.350;2023-09-07T09:31:36;96862.75;;;29.16;65.57
64610;BME280;51019;46.090;6.350;2023-09-07T09:34:06;96852.06;;;29.26;70.01
64610;BME280;51019;46.090;6.350;2023-09-07T09:36:33;96858.22;;;29.97;67.77
64610;BME280;51019;46.090;6.350;2023-09-07T09:39:01;96865.28;;;29.98;64.29
64610;BME280;51019;46.090;6.350;2023-09-07T09:41:32;96855.78;;;29.20;66.87
64610;BME280;51019;46.090;6.350;2023-09-07T09:44:02;96835.38;;;29.83;65.42
64610;BME280;51019;46.090;6.350;2023-09-07T09:46:31;96854.25;;;30.42;63.17
64610;BME280;51019;46.090;6.350;2023-09-07T09:48:58;96852.22;;;30.22;62.31
64610;BME280;51019;46.090;6.350;2023-09-07T09:51:27;96856.53;;;29.91;62.36
64610;BME280;51019;46.090;6.350;2023-09-07T09:53:55;96852.59;;;30.36;60.00
64610;BME280;51019;46.090;6.350;2023-09-07T09:56:22;96855.78;;;29.69;63.93
64610;BME280;51019;46.090;6.350;2023-09-07T09:58:53;96837.09;;;30.63;59.37
64610;BME280;51019;46.090;6.350;2023-09-07T10:01:20;96845.34;;;30.46;59.62
64610;BME280;51019;46.090;6.350;2023-09-07T10:03:49;96843.19;;;30.90;57.58
64610;BME280;51019;46.090;6.350;2023-09-07T10:06:23;96848.75;;;31.21;56.18
64610;BME280;51019;46.090;6.350;2023-09-07T10:08:55;96838.47;;;31.28;57.09
64610;BME280;51019;46.090;6.350;2023-09-07T10:11:27;96833.88;;;30.71;57.14
64610;BME280;51019;46.090;6.350;2023-09-07T10:14:00;96811.84;;;30.52;59.05
64610;BME280;51019;46.090;6.350;2023-09-07T10:16:28;96830.88;;;31.15;55.48
64610;BME280;51019;46.090;6.350;2023-09-07T10:18:55;96823.78;;;31.09;57.88
64610;BME280;51019;46.090;6.350;2023-09-07T10:21:25;96808.41;;;31.29;55.29
64610;BME280;51019;46.090;6.350;2023-09-07T10:23:52;96816.16;;;31.00;59.77
64610;BME280;51019;46.090;6.350;2023-09-07T10:26:20;96812.94;;;31.03;58.38
64610;BME280;51019;46.090;6.350;2023-09-07T10:28:47;96816.81;;;31.38;56.33
64610;BME280;51019;46.090;6.350;2023-09-07T10:31:27;96798.44;;;31.50;55.10
64610;BME280;51019;46.090;6.350;2023-09-07T10:33:56;96815.81;;;31.85;56.96
64610;BME280;51019;46.090;6.350;2023-09-07T10:36:24;96801.16;;;31.45;56.56
64610;BME280;51019;46.090;6.350;2023-09-07T10:38:52;96803.66;;;31.92;56.77
64610;BME280;51019;46.090;6.350;2023-09-07T10:41:19;96807.72;;;32.05;53.27
64610;BME280;51019;46.090;6.350;2023-09-07T10:43:47;96810.31;;;31.39;56.80
64610;BME280;51019;46.090;6.350;2023-09-07T10:46:14;96789.28;;;32.02;57.22
64610;BME280;51019;46.090;6.350;2023-09-07T10:48:48;96778.97;;;31.79;55.13
64610;BME280;51019;46.090;6.350;2023-09-07T10:51:15;96798.75;;;31.89;56.05
64610;BME280;51019;46.090;6.350;2023-09-07T10:53:42;96800.38;;;32.31;55.75
64610;BME280;51019;46.090;6.350;2023-09-07T10:56:09;96797.59;;;32.51;52.20
64610;BME280;51019;46.090;6.350;2023-09-07T10:58:37;96794.41;;;32.34;51.82
64610;BME280;51019;46.090;6.350;2023-09-07T11:01:06;96795.59;;;32.87;52.21
64610;BME280;51019;46.090;6.350;2023-09-07T11:03:33;96800.56;;;33.34;50.83
64610;BME280;51019;46.090;6.350;2023-09-07T11:06:07;96794.13;;;33.10;51.18
64610;BME280;51019;46.090;6.350;2023-09-07T11:08:35;96788.47;;;33.06;52.86
64610;BME280;51019;46.090;6.350;2023-09-07T11:11:02;96780.72;;;33.34;52.03
64610;BME280;51019;46.090;6.350;2023-09-07T11:13:30;96789.97;;;32.63;51.08
64610;BME280;51019;46.090;6.350;2023-09-07T11:15:58;96788.88;;;33.34;49.65
64610;BME280;51019;46.090;6.350;2023-09-07T11:18:26;96782.47;;;33.59;48.50
64610;BME280;51019;46.090;6.350;2023-09-07T11:20:53;96780.78;;;33.29;48.77
64610;BME280;51019;46.090;6.350;2023-09-07T11:23:22;96779.91;;;33.72;49.61
64610;BME280;51019;46.090;6.350;2023-09-07T11:25:50;96782.44;;;33.98;46.76
64610;BME280;51019;46.090;6.350;2023-09-07T11:28:18;96769.66;;;34.80;44.42
64610;BME280;51019;46.090;6.350;2023-09-07T11:30:51;96766.50;;;34.15;48.73
64610;BME280;51019;46.090;6.350;2023-09-07T11:33:20;96771.00;;;34.01;48.78
64610;BME280;51019;46.090;6.350;2023-09-07T11:35:49;96760.00;;;34.11;46.52
64610;BME280;51019;46.090;6.350;2023-09-07T11:38:18;96763.94;;;35.00;45.38
64610;BME280;51019;46.090;6.350;2023-09-07T11:40:47;96765.41;;;34.92;44.74
64610;BME280;51019;46.090;6.350;2023-09-07T11:43:15;96768.06;;;34.98;44.90
64610;BME280;51019;46.090;6.350;2023-09-07T11:45:47;96768.81;;;35.59;40.97
64610;BME280;51019;46.090;6.350;2023-09-07T11:48:14;96767.03;;;36.20;41.98
64610;BME280;51019;46.090;6.350;2023-09-07T11:50:42;96769.97;;;36.23;40.64
64610;BME280;51019;46.090;6.350;2023-09-07T11:53:18;96769.00;;;36.33;41.55
64610;BME280;51019;46.090;6.350;2023-09-07T11:55:47;96754.09;;;35.23;43.38
64610;BME280;51019;46.090;6.350;2023-09-07T11:58:14;96759.78;;;35.26;42.46
64610;BME280;51019;46.090;6.350;2023-09-07T12:00:42;96746.94;;;35.83;42.77
64610;BME280;51019;46.090;6.350;2023-09-07T12:03:10;96750.69;;;34.70;44.50
64610;BME280;51019;46.090;6.350;2023-09-07T12:05:37;96746.81;;;33.99;45.69
64610;BME280;51019;46.090;6.350;2023-09-07T12:08:07;96756.94;;;35.69;42.85
64610;BME280;51019;46.090;6.350;2023-09-07T12:10:33;96751.28;;;35.84;40.82
64610;BME280;51019;46.090;6.350;2023-09-07T12:13:02;96757.69;;;36.07;40.26
64610;BME280;51019;46.090;6.350;2023-09-07T12:15:31;96741.78;;;35.82;40.17
64610;BME280;51019;46.090;6.350;2023-09-07T12:17:58;96753.41;;;35.12;39.78
64610;BME280;51019;46.090;6.350;2023-09-07T12:20:25;96748.16;;;35.21;41.22
64610;BME280;51019;46.090;6.350;2023-09-07T12:22:52;96746.03;;;35.69;39.12
64610;BME280;51019;46.090;6.350;2023-09-07T12:25:19;96742.47;;;36.20;38.54
64610;BME280;51019;46.090;6.350;2023-09-07T12:27:46;96741.78;;;36.28;39.52
64610;BME280;51019;46.090;6.350;2023-09-07T12:30:17;96742.41;;;34.56;41.32
64610;BME280;51019;46.090;6.350;2023-09-07T12:32:45;96738.38;;;36.03;39.62
64610;BME280;51019;46.090;6.350;2023-09-07T12:35:14;96737.34;;;34.26;42.80
64610;BME280;51019;46.090;6.350;2023-09-07T12:37:41;96739.94;;;36.10;39.26
64610;BME280;51019;46.090;6.350;2023-09-07T12:40:09;96718.25;;;34.31;43.98
64610;BME280;51019;46.090;6.350;2023-09-07T12:42:42;96730.53;;;32.67;45.02
64610;BME280;51019;46.090;6.350;2023-09-07T12:45:10;96725.59;;;33.33;44.93
64610;BME280;51019;46.090;6.350;2023-09-07T12:47:39;96714.91;;;33.03;47.73
64610;BME280;51019;46.090;6.350;2023-09-07T12:50:06;96726.00;;;34.42;43.89
64610;BME280;51019;46.090;6.350;2023-09-07T12:52:34;96731.53;;;34.80;43.98
64610;BME280;51019;46.090;6.350;2023-09-07T12:55:03;96722.75;;;35.07;41.05